createdAt,value
2023-02-24T00:00:49.740Z,1006.43
2023-02-24T00:01:49.739Z,1006.38
2023-02-24T00:02:49.818Z,1006.35
2023-02-24T00:03:49.767Z,1006.39
2023-02-24T00:04:49.717Z,1006.37
2023-02-24T00:05:49.689Z,1006.37
2023-02-24T00:06:49.676Z,1006.36
2023-02-24T00:07:49.670Z,1006.32
2023-02-24T00:08:49.658Z,1006.37
2023-02-24T00:09:49.643Z,1006.33
2023-02-24T00:10:49.643Z,1006.30
2023-02-24T00:11:49.629Z,1006.32
2023-02-24T00:12:49.633Z,1006.29
2023-02-24T00:13:49.606Z,1006.32
2023-02-24T00:14:49.595Z,1006.28
2023-02-24T00:15:49.582Z,1006.24
2023-02-24T00:16:49.721Z,1006.24
2023-02-24T00:17:49.555Z,1006.24
2023-02-24T00:18:49.538Z,1006.28
2023-02-24T00:19:49.547Z,1006.25
2023-02-24T00:20:49.535Z,1006.26
2023-02-24T00:21:49.521Z,1006.28
2023-02-24T00:22:49.502Z,1006.19
2023-02-24T00:23:49.494Z,1006.20
2023-02-24T00:24:49.485Z,1006.28
2023-02-24T00:25:49.487Z,1006.37
2023-02-24T00:26:49.473Z,1006.47
2023-02-24T00:27:49.464Z,1006.46
2023-02-24T00:28:49.453Z,1006.49
2023-02-24T00:29:49.435Z,1006.44
2023-02-24T00:30:49.475Z,1006.37
2023-02-24T00:31:49.607Z,1006.46
2023-02-24T00:32:49.589Z,1006.45
2023-02-24T00:33:49.384Z,1006.41
2023-02-24T00:34:49.374Z,1006.34
2023-02-24T00:35:49.368Z,1006.38
2023-02-24T00:36:49.369Z,1006.29
2023-02-24T00:37:49.362Z,1006.36
2023-02-24T00:38:49.346Z,1006.36
2023-02-24T00:39:49.326Z,1006.33
2023-02-24T00:40:49.310Z,1006.33
2023-02-24T00:41:49.306Z,1006.32
2023-02-24T00:42:49.303Z,1006.28
2023-02-24T00:43:49.295Z,1006.36
2023-02-24T00:44:49.300Z,1006.36
2023-02-24T00:45:49.268Z,1006.32
2023-02-24T00:46:49.251Z,1006.35
2023-02-24T00:47:49.274Z,1006.41
2023-02-24T00:48:49.261Z,1006.38
2023-02-24T00:49:49.230Z,1006.46
2023-02-24T00:50:49.220Z,1006.41
2023-02-24T00:51:49.234Z,1006.39
2023-02-24T00:52:49.197Z,1006.40
2023-02-24T00:53:49.196Z,1006.32
2023-02-24T00:54:49.222Z,1006.35
2023-02-24T00:55:49.167Z,1006.38
2023-02-24T00:56:49.159Z,1006.37
2023-02-24T00:57:49.144Z,1006.38
2023-02-24T00:58:49.129Z,1006.27
2023-02-24T00:59:49.131Z,1006.39
2023-02-24T01:00:49.151Z,1006.24
2023-02-24T01:01:49.145Z,1006.32
2023-02-24T01:02:49.095Z,1006.30
2023-02-24T01:03:49.101Z,1006.33
2023-02-24T01:04:49.069Z,1006.27
2023-02-24T01:05:49.076Z,1006.22
2023-02-24T01:06:49.045Z,1006.29
2023-02-24T01:07:49.039Z,1006.28
2023-02-24T01:08:49.029Z,1006.26
2023-02-24T01:09:49.005Z,1006.26
2023-02-24T01:10:48.993Z,1006.26
2023-02-24T01:11:49.090Z,1006.29
2023-02-24T01:12:48.981Z,1006.30
2023-02-24T01:13:48.980Z,1006.25
2023-02-24T01:14:48.949Z,1006.26
2023-02-24T01:15:48.957Z,1006.32
2023-02-24T01:16:48.960Z,1006.28
2023-02-24T01:17:48.940Z,1006.27
2023-02-24T01:18:48.910Z,1006.33
2023-02-24T01:19:48.905Z,1006.25
2023-02-24T01:20:48.895Z,1006.29
2023-02-24T01:21:48.882Z,1006.36
2023-02-24T01:22:48.882Z,1006.24
2023-02-24T01:23:48.854Z,1006.28
2023-02-24T01:24:48.877Z,1006.29
2023-02-24T01:25:48.844Z,1006.30
2023-02-24T01:26:48.841Z,1006.30
2023-02-24T01:27:48.831Z,1006.27
2023-02-24T01:28:48.823Z,1006.30
2023-02-24T01:29:48.787Z,1006.18
2023-02-24T01:30:48.788Z,1006.23
2023-02-24T01:31:50.083Z,1006.18
2023-02-24T01:32:49.116Z,1006.21
2023-02-24T01:33:48.754Z,1006.18
2023-02-24T01:34:48.748Z,1006.23
2023-02-24T01:35:48.738Z,1006.20
2023-02-24T01:36:48.724Z,1006.16
2023-02-24T01:37:48.727Z,1006.15
2023-02-24T01:38:48.700Z,1006.15
2023-02-24T01:39:48.699Z,1006.09
2023-02-24T01:40:48.679Z,1006.07
2023-02-24T01:41:48.664Z,1006.11
2023-02-24T01:42:48.672Z,1006.11
2023-02-24T01:43:48.661Z,1006.08
2023-02-24T01:44:48.651Z,1006.05
2023-02-24T01:45:48.628Z,1006.04
2023-02-24T01:46:48.650Z,1006.07
2023-02-24T01:47:48.615Z,1006.00
2023-02-24T01:48:48.618Z,1005.97
2023-02-24T01:49:48.623Z,1006.08
2023-02-24T01:50:48.580Z,1006.08
2023-02-24T01:51:48.568Z,1005.97
2023-02-24T01:52:48.553Z,1006.05
2023-02-24T01:53:48.548Z,1006.07
2023-02-24T01:54:48.534Z,1006.01
2023-02-24T01:55:48.542Z,1006.01
2023-02-24T01:56:48.519Z,1005.98
2023-02-24T01:57:48.504Z,1005.93
2023-02-24T01:58:48.528Z,1005.93
2023-02-24T01:59:48.483Z,1005.89
2023-02-24T02:00:48.477Z,1005.93
2023-02-24T02:01:48.597Z,1005.95
2023-02-24T02:02:48.503Z,1005.94
2023-02-24T02:03:48.448Z,1005.88
2023-02-24T02:04:48.464Z,1005.88
2023-02-24T02:05:48.516Z,1005.84
2023-02-24T02:06:48.400Z,1005.89
2023-02-24T02:07:48.411Z,1005.86
2023-02-24T02:08:48.380Z,1005.85
2023-02-24T02:09:48.388Z,1005.88
2023-02-24T02:10:48.362Z,1005.88
2023-02-24T02:11:48.346Z,1005.82
2023-02-24T02:12:48.352Z,1005.83
2023-02-24T02:13:48.375Z,1005.82
2023-02-24T02:14:48.320Z,1005.83
2023-02-24T02:15:48.388Z,1005.79
2023-02-24T02:16:48.301Z,1005.77
2023-02-24T02:17:48.296Z,1005.78
2023-02-24T02:18:48.277Z,1005.77
2023-02-24T02:19:48.269Z,1005.76
2023-02-24T02:20:48.303Z,1005.74
2023-02-24T02:21:48.253Z,1005.74
2023-02-24T02:22:48.244Z,1005.74
2023-02-24T02:23:48.221Z,1005.74
2023-02-24T02:24:48.229Z,1005.68
2023-02-24T02:25:48.209Z,1005.67
2023-02-24T02:26:48.198Z,1005.77
2023-02-24T02:27:48.202Z,1005.79
2023-02-24T02:28:48.162Z,1005.72
2023-02-24T02:29:48.150Z,1005.78
2023-02-24T02:30:48.184Z,1005.79
2023-02-24T02:31:48.216Z,1005.88
2023-02-24T02:32:48.315Z,1005.77
2023-02-24T02:33:48.159Z,1005.84
2023-02-24T02:34:48.100Z,1005.83
2023-02-24T02:35:48.095Z,1005.79
2023-02-24T02:36:48.101Z,1005.82
2023-02-24T02:37:48.086Z,1005.79
2023-02-24T02:38:48.061Z,1005.81
2023-02-24T02:39:48.065Z,1005.75
2023-02-24T02:40:48.048Z,1005.81
2023-02-24T02:41:48.033Z,1005.77
2023-02-24T02:42:48.017Z,1005.81
2023-02-24T02:43:48.019Z,1005.78
2023-02-24T02:44:48.044Z,1005.67
2023-02-24T02:45:48.142Z,1005.76
2023-02-24T02:46:47.974Z,1005.69
2023-02-24T02:47:47.963Z,1005.71
2023-02-24T02:48:47.952Z,1005.71
2023-02-24T02:49:47.963Z,1005.65
2023-02-24T02:50:47.952Z,1005.72
2023-02-24T02:51:47.925Z,1005.68
2023-02-24T02:52:47.934Z,1005.73
2023-02-24T02:53:47.899Z,1005.69
2023-02-24T02:54:47.892Z,1005.65
2023-02-24T02:55:47.893Z,1005.63
2023-02-24T02:56:47.876Z,1005.58
2023-02-24T02:57:47.873Z,1005.60
2023-02-24T02:58:47.876Z,1005.58
2023-02-24T02:59:47.845Z,1005.60
2023-02-24T03:00:47.861Z,1005.49
2023-02-24T03:01:47.848Z,1005.52
2023-02-24T03:02:47.808Z,1005.57
2023-02-24T03:03:47.810Z,1005.54
2023-02-24T03:04:47.834Z,1005.50
2023-02-24T03:05:47.776Z,1005.57
2023-02-24T03:06:47.768Z,1005.50
2023-02-24T03:07:47.793Z,1005.48
2023-02-24T03:08:47.757Z,1005.49
2023-02-24T03:09:47.733Z,1005.42
2023-02-24T03:10:47.720Z,1005.46
2023-02-24T03:11:47.710Z,1005.48
2023-02-24T03:12:47.697Z,1005.46
2023-02-24T03:13:47.705Z,1005.44
2023-02-24T03:14:47.682Z,1005.42
2023-02-24T03:15:47.671Z,1005.39
2023-02-24T03:16:47.750Z,1005.40
2023-02-24T03:17:47.648Z,1005.42
2023-02-24T03:18:47.657Z,1005.38
2023-02-24T03:19:47.639Z,1005.37
2023-02-24T03:20:47.628Z,1005.35
2023-02-24T03:21:47.612Z,1005.41
2023-02-24T03:22:47.599Z,1005.38
2023-02-24T03:23:47.582Z,1005.44
2023-02-24T03:24:47.592Z,1005.40
2023-02-24T03:25:47.569Z,1005.36
2023-02-24T03:26:47.590Z,1005.41
2023-02-24T03:27:47.540Z,1005.42
2023-02-24T03:28:47.538Z,1005.37
2023-02-24T03:29:47.522Z,1005.32
2023-02-24T03:30:47.564Z,1005.37
2023-02-24T03:31:47.639Z,1005.32
2023-02-24T03:32:47.639Z,1005.37
2023-02-24T03:33:47.485Z,1005.35
2023-02-24T03:34:47.479Z,1005.35
2023-02-24T03:35:47.481Z,1005.25
2023-02-24T03:36:47.475Z,1005.30
2023-02-24T03:37:47.470Z,1005.26
2023-02-24T03:38:47.435Z,1005.24
2023-02-24T03:39:47.422Z,1005.19
2023-02-24T03:40:47.449Z,1005.18
2023-02-24T03:41:47.402Z,1005.16
2023-02-24T03:42:47.392Z,1005.15
2023-02-24T03:43:47.392Z,1005.15
2023-02-24T03:44:47.379Z,1005.20
2023-02-24T03:45:47.403Z,1005.05
2023-02-24T03:46:47.353Z,1005.10
2023-02-24T03:47:47.352Z,1005.05
2023-02-24T03:48:47.342Z,1005.07
2023-02-24T03:49:47.322Z,1005.07
2023-02-24T03:50:47.312Z,1005.06
2023-02-24T03:51:47.291Z,1005.07
2023-02-24T03:52:47.431Z,1005.02
2023-02-24T03:53:47.285Z,1005.08
2023-02-24T03:54:47.266Z,1005.03
2023-02-24T03:55:47.255Z,1005.03
2023-02-24T03:56:47.272Z,1005.01
2023-02-24T03:57:47.243Z,1005.02
2023-02-24T03:58:47.227Z,1004.97
2023-02-24T03:59:47.225Z,1005.02
2023-02-24T04:00:47.206Z,1005.02
2023-02-24T04:01:47.208Z,1004.92
2023-02-24T04:02:47.297Z,1005.01
2023-02-24T04:03:47.169Z,1004.90
2023-02-24T04:04:47.217Z,1004.93
2023-02-24T04:05:47.152Z,1004.91
2023-02-24T04:06:47.141Z,1004.90
2023-02-24T04:07:47.133Z,1004.91
2023-02-24T04:08:47.121Z,1004.95
2023-02-24T04:09:47.124Z,1004.89
2023-02-24T04:10:47.106Z,1004.88
2023-02-24T04:11:47.099Z,1004.89
2023-02-24T04:12:47.244Z,1004.80
2023-02-24T04:13:47.089Z,1004.80
2023-02-24T04:14:47.053Z,1004.87
2023-02-24T04:15:47.081Z,1004.88
2023-02-24T04:16:47.056Z,1004.88
2023-02-24T04:17:47.019Z,1004.88
2023-02-24T04:18:47.006Z,1004.90
2023-02-24T04:19:47.025Z,1004.82
2023-02-24T04:20:47.013Z,1004.82
2023-02-24T04:21:46.983Z,1004.83
2023-02-24T04:22:46.964Z,1004.79
2023-02-24T04:23:46.956Z,1004.74
2023-02-24T04:24:46.955Z,1004.77
2023-02-24T04:25:46.949Z,1004.71
2023-02-24T04:26:46.950Z,1004.72
2023-02-24T04:27:46.926Z,1004.70
2023-02-24T04:28:46.931Z,1004.65
2023-02-24T04:29:46.900Z,1004.66
2023-02-24T04:30:47.018Z,1004.68
2023-02-24T04:31:47.135Z,1004.64
2023-02-24T04:32:46.931Z,1004.66
2023-02-24T04:33:46.859Z,1004.59
2023-02-24T04:34:46.856Z,1004.55
2023-02-24T04:35:46.837Z,1004.62
2023-02-24T04:36:46.838Z,1004.59
2023-02-24T04:37:46.822Z,1004.61
2023-02-24T04:38:46.802Z,1004.62
2023-02-24T04:39:46.790Z,1004.60
2023-02-24T04:40:46.788Z,1004.60
2023-02-24T04:41:46.791Z,1004.57
2023-02-24T04:42:46.768Z,1004.63
2023-02-24T04:43:46.766Z,1004.63
2023-02-24T04:44:46.772Z,1004.63
2023-02-24T04:45:46.732Z,1004.56
2023-02-24T04:46:46.948Z,1004.56
2023-02-24T04:47:46.723Z,1004.49
2023-02-24T04:48:46.708Z,1004.49
2023-02-24T04:49:46.707Z,1004.52
2023-02-24T04:50:46.673Z,1004.41
2023-02-24T04:51:46.665Z,1004.43
2023-02-24T04:52:46.676Z,1004.41
2023-02-24T04:53:46.646Z,1004.39
2023-02-24T04:54:46.635Z,1004.33
2023-02-24T04:55:46.635Z,1004.38
2023-02-24T04:56:46.612Z,1004.35
2023-02-24T04:57:46.599Z,1004.31
2023-02-24T04:58:46.606Z,1004.30
2023-02-24T04:59:46.596Z,1004.31
2023-02-24T05:00:46.594Z,1004.32
2023-02-24T05:01:46.591Z,1004.31
2023-02-24T05:02:46.556Z,1004.26
2023-02-24T05:03:46.611Z,1004.25
2023-02-24T05:04:46.628Z,1004.26
2023-02-24T05:05:46.523Z,1004.21
2023-02-24T05:06:46.513Z,1004.22
2023-02-24T05:07:46.520Z,1004.24
2023-02-24T05:08:46.503Z,1004.17
2023-02-24T05:09:46.507Z,1004.22
2023-02-24T05:10:46.484Z,1004.28
2023-02-24T05:11:46.481Z,1004.18
2023-02-24T05:12:46.455Z,1004.19
2023-02-24T05:13:46.458Z,1004.22
2023-02-24T05:14:46.435Z,1004.24
2023-02-24T05:15:46.462Z,1004.18
2023-02-24T05:16:46.556Z,1004.20
2023-02-24T05:17:46.405Z,1004.12
2023-02-24T05:18:46.394Z,1004.16
2023-02-24T05:19:46.397Z,1004.18
2023-02-24T05:20:46.379Z,1004.12
2023-02-24T05:21:46.362Z,1004.15
2023-02-24T05:22:46.358Z,1004.14
2023-02-24T05:23:46.345Z,1004.07
2023-02-24T05:24:46.335Z,1004.14
2023-02-24T05:25:46.357Z,1004.09
2023-02-24T05:26:46.313Z,1004.07
2023-02-24T05:27:46.306Z,1004.14
2023-02-24T05:28:46.288Z,1004.13
2023-02-24T05:29:46.272Z,1004.07
2023-02-24T05:30:46.295Z,1003.99
2023-02-24T05:31:46.358Z,1004.00
2023-02-24T05:32:46.362Z,1003.99
2023-02-24T05:33:46.240Z,1003.98
2023-02-24T05:34:46.229Z,1003.98
2023-02-24T05:35:46.216Z,1003.96
2023-02-24T05:36:46.237Z,1003.97
2023-02-24T05:37:46.192Z,1003.91
2023-02-24T05:38:46.197Z,1003.95
2023-02-24T05:39:46.174Z,1003.90
2023-02-24T05:40:46.157Z,1003.87
2023-02-24T05:41:46.143Z,1003.88
2023-02-24T05:42:46.159Z,1003.86
2023-02-24T05:43:46.138Z,1003.87
2023-02-24T05:44:46.119Z,1003.89
2023-02-24T05:45:46.112Z,1003.86
2023-02-24T05:46:46.246Z,1003.90
2023-02-24T05:47:46.086Z,1003.89
2023-02-24T05:48:46.104Z,1003.79
2023-02-24T05:49:46.064Z,1003.79
2023-02-24T05:50:46.094Z,1003.81
2023-02-24T05:51:46.039Z,1003.83
2023-02-24T05:52:46.053Z,1003.80
2023-02-24T05:53:46.031Z,1003.80
2023-02-24T05:54:46.032Z,1003.76
2023-02-24T05:55:46.023Z,1003.78
2023-02-24T05:56:45.991Z,1003.80
2023-02-24T05:57:45.979Z,1003.74
2023-02-24T05:58:45.974Z,1003.78
2023-02-24T05:59:45.981Z,1003.69
2023-02-24T06:00:45.996Z,1003.78
2023-02-24T06:01:45.983Z,1003.83
2023-02-24T06:02:45.981Z,1003.72
2023-02-24T06:03:45.924Z,1003.82
2023-02-24T06:04:46.116Z,1003.69
2023-02-24T06:05:45.900Z,1003.71
2023-02-24T06:06:45.901Z,1003.71
2023-02-24T06:07:45.880Z,1003.72
2023-02-24T06:08:45.857Z,1003.68
2023-02-24T06:09:45.852Z,1003.70
2023-02-24T06:10:45.866Z,1003.70
2023-02-24T06:11:45.895Z,1003.74
2023-02-24T06:12:45.839Z,1003.71
2023-02-24T06:13:45.809Z,1003.63
2023-02-24T06:14:45.801Z,1003.65
2023-02-24T06:15:45.821Z,1003.62
2023-02-24T06:16:45.833Z,1003.59
2023-02-24T06:17:45.764Z,1003.64
2023-02-24T06:18:45.771Z,1003.66
2023-02-24T06:19:45.743Z,1003.54
2023-02-24T06:20:45.759Z,1003.52
2023-02-24T06:21:45.747Z,1003.54
2023-02-24T06:22:45.724Z,1003.45
2023-02-24T06:23:45.715Z,1003.42
2023-02-24T06:24:45.715Z,1003.48
2023-02-24T06:25:45.688Z,1003.40
2023-02-24T06:26:45.695Z,1003.43
2023-02-24T06:27:45.671Z,1003.39
2023-02-24T06:28:45.659Z,1003.43
2023-02-24T06:29:45.655Z,1003.40
2023-02-24T06:30:45.741Z,1003.45
2023-02-24T06:31:45.718Z,1003.42
2023-02-24T06:32:45.762Z,1003.46
2023-02-24T06:33:45.610Z,1003.37
2023-02-24T06:34:45.595Z,1003.38
2023-02-24T06:35:45.580Z,1003.35
2023-02-24T06:36:45.589Z,1003.35
2023-02-24T06:37:45.576Z,1003.34
2023-02-24T06:38:45.547Z,1003.38
2023-02-24T06:39:45.544Z,1003.34
2023-02-24T06:40:45.533Z,1003.28
2023-02-24T06:41:45.517Z,1003.33
2023-02-24T06:42:45.528Z,1003.31
2023-02-24T06:43:45.501Z,1003.30
2023-02-24T06:44:45.513Z,1003.21
2023-02-24T06:45:45.579Z,1003.28
2023-02-24T06:46:45.472Z,1003.12
2023-02-24T06:47:45.479Z,1003.29
2023-02-24T06:48:45.442Z,1003.23
2023-02-24T06:49:45.444Z,1003.15
2023-02-24T06:50:45.438Z,1003.20
2023-02-24T06:51:45.409Z,1003.09
2023-02-24T06:52:45.429Z,1003.18
2023-02-24T06:53:45.406Z,1003.18
2023-02-24T06:54:45.392Z,1003.20
2023-02-24T06:55:45.378Z,1003.18
2023-02-24T06:56:45.382Z,1003.11
2023-02-24T06:57:45.362Z,1003.17
2023-02-24T06:58:45.343Z,1003.07
2023-02-24T06:59:45.329Z,1003.15
2023-02-24T07:00:45.318Z,1003.08
2023-02-24T07:01:45.570Z,1003.07
2023-02-24T07:02:45.316Z,1003.09
2023-02-24T07:03:45.512Z,1003.04
2023-02-24T07:04:45.299Z,1003.10
2023-02-24T07:05:45.273Z,1003.08
2023-02-24T07:06:45.265Z,1003.02
2023-02-24T07:07:45.254Z,1003.08
2023-02-24T07:08:45.271Z,1003.00
2023-02-24T07:09:45.328Z,1003.01
2023-02-24T07:10:45.237Z,1002.96
2023-02-24T07:11:46.810Z,1003.00
2023-02-24T07:12:45.203Z,1002.97
2023-02-24T07:13:45.195Z,1002.97
2023-02-24T07:14:45.200Z,1002.91
2023-02-24T07:15:45.169Z,1003.00
2023-02-24T07:16:45.409Z,1002.93
2023-02-24T07:17:47.089Z,1002.91
2023-02-24T07:18:45.151Z,1002.93
2023-02-24T07:19:45.147Z,1002.89
2023-02-24T07:20:45.127Z,1002.90
2023-02-24T07:21:45.102Z,1002.92
2023-02-24T07:22:45.099Z,1002.95
2023-02-24T07:23:45.094Z,1002.89
2023-02-24T07:24:45.087Z,1002.84
2023-02-24T07:25:45.077Z,1002.84
2023-02-24T07:26:45.077Z,1002.88
2023-02-24T07:27:45.048Z,1002.78
2023-02-24T07:28:45.028Z,1002.76
2023-02-24T07:29:45.015Z,1002.69
2023-02-24T07:30:45.156Z,1002.71
2023-02-24T07:31:45.342Z,1002.71
2023-02-24T07:32:45.037Z,1002.69
2023-02-24T07:33:44.979Z,1002.69
2023-02-24T07:34:44.962Z,1002.64
2023-02-24T07:35:44.970Z,1002.65
2023-02-24T07:36:44.943Z,1002.58
2023-02-24T07:37:44.934Z,1002.66
2023-02-24T07:38:44.940Z,1002.63
2023-02-24T07:39:44.911Z,1002.59
2023-02-24T07:40:44.936Z,1002.53
2023-02-24T07:41:44.905Z,1002.55
2023-02-24T07:42:53.718Z,1002.50
2023-02-24T07:43:52.411Z,1002.48
2023-02-24T07:44:52.390Z,1002.48
2023-02-24T07:45:44.847Z,1002.45
2023-02-24T07:46:44.846Z,1002.39
2023-02-24T07:47:44.844Z,1002.43
2023-02-24T07:48:44.824Z,1002.36
2023-02-24T07:49:44.805Z,1002.41
2023-02-24T07:50:44.819Z,1002.35
2023-02-24T07:51:44.781Z,1002.33
2023-02-24T07:52:44.775Z,1002.39
2023-02-24T07:53:44.786Z,1002.32
2023-02-24T07:54:44.767Z,1002.31
2023-02-24T07:55:44.749Z,1002.28
2023-02-24T07:56:44.753Z,1002.25
2023-02-24T07:57:44.723Z,1002.24
2023-02-24T07:58:44.742Z,1002.18
2023-02-24T07:59:44.695Z,1002.21
2023-02-24T08:00:44.687Z,1002.18
2023-02-24T08:01:44.681Z,1002.15
2023-02-24T08:02:44.678Z,1002.14
2023-02-24T08:03:44.682Z,1002.14
2023-02-24T08:04:44.672Z,1002.13
2023-02-24T08:05:44.718Z,1002.07
2023-02-24T08:06:47.832Z,1002.07
2023-02-24T08:07:44.622Z,1002.13
2023-02-24T08:08:44.604Z,1002.00
2023-02-24T08:09:44.712Z,1002.05
2023-02-24T08:10:44.606Z,1001.93
2023-02-24T08:11:44.577Z,1001.90
2023-02-24T08:12:44.578Z,1001.96
2023-02-24T08:13:44.544Z,1001.90
2023-02-24T08:14:44.636Z,1001.91
2023-02-24T08:15:44.578Z,1001.86
2023-02-24T08:16:44.528Z,1001.87
2023-02-24T08:17:44.500Z,1001.82
2023-02-24T08:18:44.492Z,1001.85
2023-02-24T08:19:44.482Z,1001.85
2023-02-24T08:20:44.482Z,1001.76
2023-02-24T08:21:44.457Z,1001.82
2023-02-24T08:22:44.472Z,1001.79
2023-02-24T08:23:44.439Z,1001.80
2023-02-24T08:24:44.426Z,1001.82
2023-02-24T08:25:44.433Z,1001.69
2023-02-24T08:26:44.417Z,1001.68
2023-02-24T08:27:44.395Z,1001.71
2023-02-24T08:28:44.417Z,1001.65
2023-02-24T08:29:44.371Z,1001.68
2023-02-24T08:30:44.426Z,1001.67
2023-02-24T08:31:44.504Z,1001.67
2023-02-24T08:32:44.385Z,1001.57
2023-02-24T08:33:44.342Z,1001.58
2023-02-24T08:34:44.348Z,1001.56
2023-02-24T08:35:44.705Z,1001.56
2023-02-24T08:36:44.301Z,1001.52
2023-02-24T08:37:44.314Z,1001.52
2023-02-24T08:38:44.290Z,1001.51
2023-02-24T08:39:44.278Z,1001.45
2023-02-24T08:40:44.266Z,1001.55
2023-02-24T08:41:44.256Z,1001.53
2023-02-24T08:42:44.241Z,1001.53
2023-02-24T08:43:44.242Z,1001.51
2023-02-24T08:44:44.241Z,1001.55
2023-02-24T08:45:44.210Z,1001.44
2023-02-24T08:46:44.288Z,1001.43
2023-02-24T08:47:44.201Z,1001.34
2023-02-24T08:48:44.189Z,1001.37
2023-02-24T08:49:46.130Z,1001.36
2023-02-24T08:50:44.156Z,1001.33
2023-02-24T08:51:44.169Z,1001.35
2023-02-24T08:52:44.160Z,1001.33
2023-02-24T08:53:44.138Z,1001.22
2023-02-24T08:54:44.114Z,1001.24
2023-02-24T08:55:44.116Z,1001.29
2023-02-24T08:56:44.249Z,1001.28
2023-02-24T08:57:44.097Z,1001.20
2023-02-24T08:58:44.115Z,1001.11
2023-02-24T08:59:44.074Z,1001.14
2023-02-24T09:00:44.122Z,1001.19
2023-02-24T09:01:45.314Z,1001.16
2023-02-24T09:02:44.031Z,1001.12
2023-02-24T09:03:44.029Z,1001.11
2023-02-24T09:04:44.093Z,1001.13
2023-02-24T09:05:43.998Z,1001.11
2023-02-24T09:06:44.471Z,1001.07
2023-02-24T09:07:43.994Z,1001.13
2023-02-24T09:08:43.972Z,1001.07
2023-02-24T09:09:43.959Z,1001.10
2023-02-24T09:10:43.972Z,1001.00
2023-02-24T09:11:43.998Z,1001.04
2023-02-24T09:12:43.933Z,1001.01
2023-02-24T09:13:43.922Z,1000.95
2023-02-24T09:14:43.913Z,1000.93
2023-02-24T09:15:43.908Z,1000.96
2023-02-24T09:16:43.990Z,1000.93
2023-02-24T09:17:43.883Z,1000.97
2023-02-24T09:18:43.872Z,1000.90
2023-02-24T09:19:43.850Z,1000.89
2023-02-24T09:20:43.857Z,1000.88
2023-02-24T09:21:43.852Z,1000.86
2023-02-24T09:22:43.835Z,1000.80
2023-02-24T09:23:43.812Z,1000.76
2023-02-24T09:24:43.806Z,1000.80
2023-02-24T09:25:43.806Z,1000.74
2023-02-24T09:26:43.795Z,1000.72
2023-02-24T09:27:43.775Z,1000.71
2023-02-24T09:28:43.814Z,1000.74
2023-02-24T09:29:43.751Z,1000.73
2023-02-24T09:30:43.768Z,1000.71
2023-02-24T09:31:43.972Z,1000.66
2023-02-24T09:32:43.809Z,1000.53
2023-02-24T09:33:43.718Z,1000.57
2023-02-24T09:34:43.701Z,1000.58
2023-02-24T09:35:43.698Z,1000.62
2023-02-24T09:36:43.670Z,1000.57
2023-02-24T09:37:43.667Z,1000.52
2023-02-24T09:38:43.654Z,1000.49
2023-02-24T09:39:43.648Z,1000.49
2023-02-24T09:40:43.652Z,1000.50
2023-02-24T09:41:43.650Z,1000.47
2023-02-24T09:42:43.605Z,1000.46
2023-02-24T09:43:43.592Z,1000.39
2023-02-24T09:44:43.593Z,1000.43
2023-02-24T09:45:43.646Z,1000.43
2023-02-24T09:46:43.636Z,1000.46
2023-02-24T09:47:43.565Z,1000.34
2023-02-24T09:48:43.699Z,1000.41
2023-02-24T09:49:43.534Z,1000.43
2023-02-24T09:51:01.385Z,1000.43
2023-02-24T09:51:44.516Z,1000.42
2023-02-24T09:52:57.610Z,1000.42
2023-02-24T09:54:53.821Z,1000.36
2023-02-24T09:56:01.337Z,1000.31
2023-02-24T09:56:53.784Z,1000.25
2023-02-24T09:57:53.793Z,1000.30
2023-02-24T09:58:53.769Z,1000.30
2023-02-24T09:59:53.754Z,1000.26
2023-02-24T10:00:53.898Z,1000.26
2023-02-24T10:01:53.768Z,1000.22
2023-02-24T10:02:53.726Z,1000.23
2023-02-24T10:03:53.746Z,1000.14
2023-02-24T10:04:54.439Z,1000.21
2023-02-24T10:05:53.714Z,1000.16
2023-02-24T10:06:53.699Z,1000.13
2023-02-24T10:07:53.679Z,1000.15
2023-02-24T10:08:53.670Z,1000.12
2023-02-24T10:09:53.653Z,1000.05
2023-02-24T10:10:53.634Z,1000.10
2023-02-24T10:11:53.666Z,1000.09
2023-02-24T10:12:53.619Z,1000.09
2023-02-24T10:13:53.611Z,1000.15
2023-02-24T10:15:00.061Z,1000.08
2023-02-24T10:15:57.822Z,1000.07
2023-02-24T10:16:53.636Z,1000.07
2023-02-24T10:17:53.581Z,999.99
2023-02-24T10:18:53.559Z,1000.04
2023-02-24T10:19:53.570Z,1000.09
2023-02-24T10:20:53.602Z,1000.03
2023-02-24T10:21:53.524Z,999.96
2023-02-24T10:22:53.533Z,1000.08
2023-02-24T10:23:54.806Z,1000.07
2023-02-24T10:24:53.486Z,1000.13
2023-02-24T10:25:53.484Z,1000.04
2023-02-24T10:27:00.729Z,1000.03
2023-02-24T10:27:54.470Z,1000.09
2023-02-24T10:28:53.467Z,1000.05
2023-02-24T10:29:53.436Z,999.99
2023-02-24T10:30:53.577Z,1000.01
2023-02-24T10:31:53.660Z,999.94
2023-02-24T10:32:53.525Z,999.91
2023-02-24T10:33:53.405Z,999.87
2023-02-24T10:34:53.405Z,999.96
2023-02-24T10:35:53.394Z,999.86
2023-02-24T10:36:53.358Z,999.94
2023-02-24T10:37:53.362Z,999.90
2023-02-24T10:38:53.336Z,999.83
2023-02-24T10:39:53.326Z,999.95
2023-02-24T10:40:53.342Z,999.84
2023-02-24T10:41:53.336Z,999.72
2023-02-24T10:42:53.293Z,999.78
2023-02-24T10:43:53.315Z,999.83
2023-02-24T10:45:01.741Z,999.66
2023-02-24T10:45:54.300Z,999.89
2023-02-24T10:46:53.293Z,999.84
2023-02-24T10:47:53.268Z,999.76
2023-02-24T10:48:53.249Z,999.84
2023-02-24T10:49:53.227Z,999.74
2023-02-24T10:50:56.204Z,999.77
2023-02-24T10:51:53.297Z,999.81
2023-02-24T10:52:53.215Z,999.77
2023-02-24T10:53:53.205Z,999.76
2023-02-24T10:54:53.222Z,999.67
2023-02-24T10:55:53.164Z,999.74
2023-02-24T10:56:53.150Z,999.67
2023-02-24T10:57:58.986Z,999.67
2023-02-24T10:58:54.133Z,999.63
2023-02-24T10:59:53.217Z,999.57
2023-02-24T11:00:53.111Z,999.68
2023-02-24T11:01:53.164Z,999.55
2023-02-24T11:02:53.151Z,999.56
2023-02-24T11:03:53.079Z,999.55
2023-02-24T11:04:53.061Z,999.51
2023-02-24T11:05:53.057Z,999.55
2023-02-24T11:06:53.043Z,999.52
2023-02-24T11:07:53.056Z,999.48
2023-02-24T11:08:53.026Z,999.42
2023-02-24T11:09:53.042Z,999.43
2023-02-24T11:10:53.229Z,999.40
2023-02-24T11:11:52.992Z,999.34
2023-02-24T11:13:00.875Z,999.31
2023-02-24T11:13:53.979Z,999.27
2023-02-24T11:14:52.977Z,999.27
2023-02-24T11:15:53.014Z,999.29
2023-02-24T11:16:52.934Z,999.32
2023-02-24T11:17:52.972Z,999.18
2023-02-24T11:18:52.906Z,999.17
2023-02-24T11:19:52.903Z,999.30
2023-02-24T11:20:52.905Z,999.12
2023-02-24T11:21:52.881Z,999.16
2023-02-24T11:22:52.868Z,999.12
2023-02-24T11:23:52.882Z,999.09
2023-02-24T11:24:52.852Z,999.10
2023-02-24T11:25:52.858Z,999.02
2023-02-24T11:26:52.835Z,998.99
2023-02-24T11:27:52.807Z,999.03
2023-02-24T11:28:52.797Z,999.02
2023-02-24T11:29:52.811Z,999.05
2023-02-24T11:30:53.028Z,998.99
2023-02-24T11:31:52.869Z,998.97
2023-02-24T11:32:52.819Z,998.96
2023-02-24T11:33:52.740Z,998.93
2023-02-24T11:34:52.738Z,998.95
2023-02-24T11:35:52.742Z,998.91
2023-02-24T11:36:52.718Z,998.86
2023-02-24T11:37:52.704Z,998.83
2023-02-24T11:38:52.690Z,998.81
2023-02-24T11:39:52.731Z,998.85
2023-02-24T11:40:52.667Z,998.80
2023-02-24T11:41:52.670Z,998.82
2023-02-24T11:42:52.645Z,998.71
2023-02-24T11:43:52.641Z,998.68
2023-02-24T11:44:52.634Z,998.69
2023-02-24T11:45:52.630Z,998.68
2023-02-24T11:46:52.610Z,998.61
2023-02-24T11:47:52.597Z,998.60
2023-02-24T11:48:52.595Z,998.57
2023-02-24T11:49:52.582Z,998.60
2023-02-24T11:50:52.576Z,998.57
2023-02-24T11:51:52.561Z,998.53
2023-02-24T11:52:52.538Z,998.52
2023-02-24T11:53:52.540Z,998.42
2023-02-24T11:54:52.525Z,998.41
2023-02-24T11:55:52.553Z,998.41
2023-02-24T11:56:52.502Z,998.33
2023-02-24T11:57:52.497Z,998.29
2023-02-24T11:58:52.476Z,998.25
2023-02-24T11:59:52.478Z,998.23
2023-02-24T12:00:52.461Z,998.29
2023-02-24T12:01:52.462Z,998.14
2023-02-24T12:02:52.462Z,998.18
2023-02-24T12:03:52.420Z,998.18
2023-02-24T12:04:52.414Z,998.14
2023-02-24T12:05:52.442Z,998.12
2023-02-24T12:06:52.404Z,998.11
2023-02-24T12:07:52.390Z,998.08
2023-02-24T12:08:52.369Z,998.03
2023-02-24T12:09:54.861Z,998.00